Time;durP1;ratioP1;P1;durP2;ratioP2;P2;SDS_P1;SDS_P2;PMS_P1;PMS_P2;Temp;Humidity;BMP_temperature;BMP_pressure;BME280_temperature;BME280_humidity;BME280_pressure;Samples;Min_cycle;Max_cycle;Signal;HPM_P1;HPM_P2
2022/04/11 00:00:00;;;;;;;;;5.75;4.00;;;;;12.27;40.25;101062.50;5174762;27;47493;-67
2022/04/11 00:02:25;;;;;;;;;5.75;5.75;;;;;12.08;39.91;101024.56;5173201;27;45068;-69
2022/04/11 00:04:51;;;;;;;;;6.00;6.00;;;;;12.21;40.41;101052.56;5169119;27;45158;-66
2022/04/11 00:07:16;;;;;;;;;7.50;4.75;;;;;12.04;40.36;101019.97;5173079;27;45024;-64
2022/04/11 00:09:44;;;;;;;;;8.75;6.25;;;;;12.14;40.77;101047.88;5175387;27;45675;-69
2022/04/11 00:12:10;;;;;;;;;5.25;3.75;;;;;12.12;40.33;101036.25;5171733;27;45979;-65
2022/04/11 00:14:36;;;;;;;;;5.50;5.50;;;;;12.11;39.88;101054.09;5175965;27;45045;-66
2022/04/11 00:17:02;;;;;;;;;8.00;4.50;;;;;12.11;39.74;101055.84;5175781;27;45041;-66
2022/04/11 00:19:28;;;;;;;;;5.00;5.00;;;;;12.07;40.22;101051.28;5175978;27;45208;-69
2022/04/11 00:21:53;;;;;;;;;10.75;8.00;;;;;11.99;40.07;101035.03;5174941;27;45277;-66
2022/04/11 00:24:19;;;;;;;;;4.00;4.00;;;;;11.96;40.40;101042.97;5174678;27;45166;-65
2022/04/11 00:26:44;;;;;;;;;4.25;4.25;;;;;11.98;40.15;101043.94;5168851;27;45045;-67
2022/04/11 00:29:09;;;;;;;;;5.50;4.25;;;;;11.81;40.71;101005.97;5151196;27;53984;-66
2022/04/11 00:31:35;;;;;;;;;4.25;4.00;;;;;12.00;40.52;101030.59;5174269;27;45125;-66
2022/04/11 00:34:00;;;;;;;;;6.00;4.00;;;;;11.84;40.12;101003.38;5175431;27;45073;-65
2022/04/11 00:36:25;;;;;;;;;3.25;3.25;;;;;11.97;40.61;101018.91;5176047;27;45149;-65
2022/04/11 00:38:51;;;;;;;;;5.50;5.50;;;;;11.97;40.81;101013.56;5175739;27;44902;-67
2022/04/11 00:41:16;;;;;;;;;4.50;4.50;;;;;11.76;40.45;100979.13;5174558;27;45089;-67
2022/04/11 00:43:41;;;;;;;;;5.50;4.25;;;;;11.87;40.45;101003.47;5173997;27;45285;-66
2022/04/11 00:46:08;;;;;;;;;3.00;3.00;;;;;11.80;40.98;100996.16;5171361;27;45191;-65
2022/04/11 00:48:35;;;;;;;;;6.00;4.25;;;;;11.77;40.79;100986.25;5175804;27;45199;-67
2022/04/11 00:51:08;;;;;;;;;3.00;3.00;;;;;11.66;40.92;100971.69;5175526;27;45144;-65
2022/04/11 00:53:38;;;;;;;;;4.25;4.25;;;;;11.45;41.10;100948.00;5175635;27;45111;-67
2022/04/11 00:56:04;;;;;;;;;2.25;2.25;;;;;11.63;40.86;100990.34;5175642;27;45280;-66
2022/04/11 00:58:31;;;;;;;;;3.75;3.75;;;;;11.61;40.73;100982.31;5175140;27;45757;-67
2022/04/11 01:00:57;;;;;;;;;3.50;3.50;;;;;11.49;40.91;100957.00;5175349;27;44870;-64
2022/04/11 01:03:22;;;;;;;;;5.00;3.75;;;;;11.70;41.12;100976.28;5174326;27;45126;-66
2022/04/11 01:05:48;;;;;;;;;3.50;3.50;;;;;11.59;41.16;100948.34;5175561;27;45077;-66
2022/04/11 01:08:13;;;;;;;;;4.75;3.00;;;;;11.63;41.04;100944.84;5175302;27;45099;-64
2022/04/11 01:10:39;;;;;;;;;4.25;4.00;;;;;11.62;40.96;100949.31;5174165;27;45128;-64
2022/04/11 01:13:04;;;;;;;;;5.00;3.00;;;;;11.67;41.09;100957.47;5163087;27;45248;-66
2022/04/11 01:15:30;;;;;;;;;4.00;4.00;;;;;11.64;40.43;100944.00;5154842;27;45496;-64
2022/04/11 01:17:55;;;;;;;;;4.50;3.50;;;;;11.60;40.82;100945.69;5174850;27;45188;-65
2022/04/11 01:20:21;;;;;;;;;4.75;3.00;;;;;11.18;41.02;100866.16;5174899;27;46518;-67
2022/04/11 01:22:47;;;;;;;;;3.00;3.00;;;;;11.62;41.11;100937.72;5175273;27;45009;-64
2022/04/11 01:25:17;;;;;;;;;5.50;5.50;;;;;11.50;40.64;100932.03;5175413;27;45040;-69
2022/04/11 01:27:43;;;;;;;;;3.50;3.50;;;;;11.31;41.19;100914.63;5174935;27;45640;-68
2022/04/11 01:30:10;;;;;;;;;4.75;3.00;;;;;11.41;41.63;100933.59;5178595;27;45298;-65
2022/04/11 01:32:39;;;;;;;;;6.00;4.50;;;;;11.37;41.11;100929.06;5178199;27;45152;-68
2022/04/11 01:35:24;;;;;;;;;3.75;3.00;;;;;11.38;41.08;100927.28;5179186;27;45010;-64
2022/04/11 01:37:49;;;;;;;;;4.75;3.75;;;;;11.42;41.08;100921.16;5176760;27;45095;-65
2022/04/11 01:40:15;;;;;;;;;9.50;9.50;;;;;11.47;41.13;100916.81;5178794;27;44966;-68
2022/04/11 01:42:42;;;;;;;;;4.25;4.00;;;;;11.48;40.43;100923.97;5174347;27;45090;-66
2022/04/11 01:45:10;;;;;;;;;4.75;4.75;;;;;11.44;40.27;100904.25;5178263;27;45173;-66
2022/04/11 01:47:36;;;;;;;;;3.25;3.25;;;;;11.44;39.81;100893.56;5176741;27;45390;-68
2022/04/11 01:50:02;;;;;;;;;2.50;2.50;;;;;11.10;39.62;100829.38;5177338;27;45109;-66
2022/04/11 01:52:27;;;;;;;;;4.75;4.50;;;;;11.44;40.08;100884.63;5174866;27;45244;-66
2022/04/11 01:54:52;;;;;;;;;2.50;2.00;;;;;11.59;39.58;100906.41;5174839;27;45326;-67
2022/04/11 01:57:18;;;;;;;;;2.50;2.00;;;;;11.57;40.06;100904.59;5178295;27;46266;-66
2022/04/11 01:59:43;;;;;;;;;5.00;3.00;;;;;11.50;39.32;100887.47;5177991;27;47922;-67
2022/04/11 02:02:08;;;;;;;;;3.00;3.00;;;;;11.54;39.28;100888.44;5177530;27;48240;-67
2022/04/11 02:04:33;;;;;;;;;2.00;2.00;;;;;11.47;40.11;100898.09;5172512;27;45019;-68
2022/04/11 02:06:59;;;;;;;;;3.50;2.25;;;;;11.35;40.04;100890.66;5178252;27;49292;-67
2022/04/11 02:09:25;;;;;;;;;3.50;3.50;;;;;11.35;39.67;100898.69;5178273;27;45202;-68
2022/04/11 02:11:50;;;;;;;;;3.00;2.75;;;;;11.39;40.35;100894.31;5177949;27;45041;-67
2022/04/11 02:14:16;;;;;;;;;3.00;3.00;;;;;11.41;40.35;100892.59;5173921;27;44849;-68
2022/04/11 02:16:41;;;;;;;;;2.50;2.50;;;;;11.40;39.55;100888.09;5166502;27;46015;-67
2022/04/11 02:19:06;;;;;;;;;3.75;3.00;;;;;11.31;40.41;100880.75;5174612;27;48289;-66
2022/04/11 02:21:31;;;;;;;;;3.00;3.00;;;;;11.29;40.11;100878.91;5177508;27;45135;-69
2022/04/11 02:23:57;;;;;;;;;3.75;3.50;;;;;11.35;40.18;100879.97;5178308;27;44987;-68
2022/04/11 02:26:22;;;;;;;;;2.00;2.00;;;;;11.36;40.02;100879.09;5177554;27;45727;-68
2022/04/11 02:28:47;;;;;;;;;2.00;2.00;;;;;11.36;40.39;100870.16;5177929;27;45012;-67
2022/04/11 02:31:13;;;;;;;;;3.00;3.00;;;;;11.35;40.09;100879.03;5158595;27;44920;-69
2022/04/11 02:33:38;;;;;;;;;2.00;2.00;;;;;11.30;40.17;100870.94;5177982;27;46573;-67
2022/04/11 02:36:04;;;;;;;;;3.50;3.50;;;;;11.28;39.93;100874.41;5169368;27;46811;-66
2022/04/11 02:38:29;;;;;;;;;5.75;4.50;;;;;11.27;40.28;100865.50;5177483;27;45072;-65
2022/04/11 02:40:54;;;;;;;;;2.50;2.50;;;;;11.29;40.12;100882.47;5177667;27;44988;-68
2022/04/11 02:43:22;;;;;;;;;4.00;4.00;;;;;11.18;40.19;100849.19;5177251;27;45057;-68
2022/04/11 02:45:48;;;;;;;;;5.25;3.25;;;;;11.33;40.18;100860.28;5176419;27;45583;-65
2022/04/11 02:48:13;;;;;;;;;2.00;2.00;;;;;11.32;40.10;100861.16;5177641;27;45212;-70
2022/04/11 02:50:38;;;;;;;;;2.25;2.25;;;;;11.33;40.17;100862.06;5174583;27;45473;-67
2022/04/11 02:53:04;;;;;;;;;7.75;4.50;;;;;11.06;39.83;100813.25;5175889;27;45197;-68
2022/04/11 02:55:29;;;;;;;;;3.25;3.25;;;;;11.29;40.11;100852.16;5175700;27;45404;-67
2022/04/11 02:57:54;;;;;;;;;2.75;2.75;;;;;11.13;39.73;100818.78;5175693;27;44894;-66
2022/04/11 03:00:20;;;;;;;;;2.50;2.50;;;;;11.27;40.36;100836.06;5175482;27;45375;-66
2022/04/11 03:02:45;;;;;;;;;2.00;2.00;;;;;11.15;40.19;100809.00;5171892;27;45524;-65
2022/04/11 03:05:10;;;;;;;;;6.75;5.50;;;;;10.77;40.34;100740.34;5175784;27;45196;-65
2022/04/11 03:07:36;;;;;;;;;7.00;3.00;;;;;11.20;39.76;100823.41;5172739;27;45475;-66
2022/04/11 03:10:02;;;;;;;;;2.75;2.50;;;;;11.20;39.97;100820.72;5175071;27;44905;-66
2022/04/11 03:12:27;;;;;;;;;2.00;2.00;;;;;10.87;40.17;100773.56;5174723;27;45184;-65
2022/04/11 03:14:52;;;;;;;;;3.50;3.50;;;;;11.12;40.29;100811.59;5177310;27;45572;-65
2022/04/11 03:17:18;;;;;;;;;4.00;3.25;;;;;11.14;40.09;100810.78;5176807;27;47768;-66
2022/04/11 03:19:44;;;;;;;;;1.75;1.75;;;;;11.02;39.77;100786.41;5158437;27;45219;-67
2022/04/11 03:22:10;;;;;;;;;4.00;4.00;;;;;11.12;40.08;100804.50;5175341;27;45217;-69
2022/04/11 03:24:35;;;;;;;;;3.50;3.50;;;;;11.09;40.59;100804.44;5173100;27;45746;-66
2022/04/11 03:27:01;;;;;;;;;4.25;2.50;;;;;11.11;39.94;100808.03;5140908;27;45465;-65
2022/04/11 03:29:26;;;;;;;;;2.50;2.50;;;;;11.07;39.54;100814.19;5170494;27;45316;-67
2022/04/11 03:31:52;;;;;;;;;2.00;2.00;;;;;11.09;39.81;100811.53;5176402;27;45005;-66
2022/04/11 03:34:17;;;;;;;;;5.00;4.50;;;;;11.05;39.84;100821.25;5174481;27;45735;-67
2022/04/11 03:36:42;;;;;;;;;3.50;3.00;;;;;11.00;40.14;100817.53;5170093;27;45027;-65
2022/04/11 03:39:08;;;;;;;;;4.00;4.00;;;;;11.00;40.15;100818.44;5173750;27;45300;-64
2022/04/11 03:41:33;;;;;;;;;4.00;3.25;;;;;10.81;39.88;100790.34;5177291;27;45183;-66
2022/04/11 03:43:58;;;;;;;;;5.50;2.50;;;;;10.99;39.86;100807.75;5175080;27;45959;-66
2022/04/11 03:46:24;;;;;;;;;4.50;2.75;;;;;11.02;39.81;100818.47;5175733;27;47135;-68
2022/04/11 03:48:49;;;;;;;;;2.75;2.75;;;;;10.91;39.68;100786.16;5176527;27;45080;-65
2022/04/11 03:51:15;;;;;;;;;4.00;4.00;;;;;10.81;39.67;100768.97;5175707;27;45433;-65
2022/04/11 03:53:41;;;;;;;;;3.00;3.00;;;;;11.01;39.70;100787.28;5176048;27;45688;-65
2022/04/11 03:56:06;;;;;;;;;3.25;3.25;;;;;11.01;39.86;100790.84;5176426;27;45325;-65
2022/04/11 03:58:32;;;;;;;;;6.00;5.25;;;;;10.98;39.67;100788.09;5175250;27;45370;-66
2022/04/11 04:00:57;;;;;;;;;4.00;3.00;;;;;10.95;39.87;100789.78;5175062;27;45556;-68
2022/04/11 04:03:23;;;;;;;;;4.50;3.00;;;;;10.94;40.03;100777.28;5174350;27;45881;-66
2022/04/11 04:05:48;;;;;;;;;3.00;3.00;;;;;10.91;40.15;100775.47;5175696;27;45195;-69
2022/04/11 04:08:17;;;;;;;;;3.50;3.00;;;;;10.91;40.63;100772.78;5176259;27;45146;-67
2022/04/11 04:10:42;;;;;;;;;4.00;4.00;;;;;10.80;40.19;100745.78;5175629;27;45074;-66
2022/04/11 04:13:08;;;;;;;;;6.50;3.25;;;;;10.83;40.04;100756.53;5174702;27;45753;-66
2022/04/11 04:15:33;;;;;;;;;3.75;3.75;;;;;10.86;39.54;100764.63;5171308;27;45309;-66
2022/04/11 04:17:58;;;;;;;;;4.75;3.25;;;;;10.81;39.96;100768.97;5175222;27;45127;-67
2022/04/11 04:20:26;;;;;;;;;2.50;2.50;;;;;10.73;40.34;100761.63;5151680;27;45033;-66
2022/04/11 04:22:53;;;;;;;;;2.75;2.50;;;;;10.68;40.46;100756.16;5174185;27;45485;-66
2022/04/11 04:25:18;;;;;;;;;4.50;4.50;;;;;10.72;40.27;100757.13;5173821;27;45128;-67
2022/04/11 04:27:43;;;;;;;;;4.00;4.00;;;;;10.68;40.26;100757.06;5173287;27;45230;-67
2022/04/11 04:30:09;;;;;;;;;4.00;4.00;;;;;10.71;40.41;100758.91;5173876;27;45393;-65
2022/04/11 04:32:34;;;;;;;;;4.00;4.00;;;;;10.72;40.05;100757.13;5171875;27;45157;-64
2022/04/11 04:35:01;;;;;;;;;4.00;4.00;;;;;10.70;40.23;100755.31;5152870;27;46210;-66
2022/04/11 04:37:26;;;;;;;;;3.25;3.25;;;;;10.63;40.49;100736.44;5172594;27;45256;-67
2022/04/11 04:39:52;;;;;;;;;1.75;1.75;;;;;10.66;40.04;100741.88;5172799;27;45207;-66
2022/04/11 04:42:21;;;;;;;;;5.25;4.00;;;;;10.47;41.02;100705.75;5172756;27;45636;-67
2022/04/11 04:44:46;;;;;;;;;4.50;4.00;;;;;10.43;40.67;100703.88;5172222;27;45256;-64
2022/04/11 04:47:11;;;;;;;;;5.00;3.50;;;;;10.13;40.40;100643.41;5175228;27;44956;-66
2022/04/11 04:49:37;;;;;;;;;3.75;2.50;;;;;10.62;40.75;100738.19;5175769;27;45259;-66
2022/04/11 04:52:03;;;;;;;;;3.00;3.00;;;;;10.59;40.82;100735.47;5174481;27;45074;-66
2022/04/11 04:54:28;;;;;;;;;4.50;4.00;;;;;10.60;40.17;100739.91;5170326;27;45075;-67
2022/04/11 04:56:53;;;;;;;;;4.00;4.00;;;;;10.68;41.08;100756.16;5173499;27;44966;-64
2022/04/11 04:59:19;;;;;;;;;3.25;3.25;;;;;10.63;40.80;100755.13;5172775;27;45239;-65
2022/04/11 05:01:44;;;;;;;;;4.00;4.00;;;;;10.59;40.82;100751.50;5171711;27;45276;-66
2022/04/11 05:04:09;;;;;;;;;4.00;4.00;;;;;10.62;40.82;100767.56;5175907;27;45122;-66
2022/04/11 05:06:35;;;;;;;;;5.50;4.00;;;;;10.59;41.08;100761.25;5176322;27;45208;-64
2022/04/11 05:09:00;;;;;;;;;4.00;4.00;;;;;10.53;40.82;100750.44;5176122;27;44938;-67
2022/04/11 05:11:25;;;;;;;;;3.50;2.50;;;;;10.61;40.76;100765.78;5163281;27;46180;-66
2022/04/11 05:13:51;;;;;;;;;4.75;4.75;;;;;10.62;40.68;100770.25;5173396;27;45138;-68
2022/04/11 05:16:18;;;;;;;;;6.00;6.00;;;;;10.61;40.54;100762.19;5179060;27;45080;-68
2022/04/11 05:18:44;;;;;;;;;5.25;5.25;;;;;10.59;41.21;100758.56;5177619;27;45090;-68
2022/04/11 05:21:10;;;;;;;;;7.00;6.75;;;;;10.58;40.77;100756.78;5176702;27;45302;-68
2022/04/11 05:23:35;;;;;;;;;5.00;5.00;;;;;10.57;40.86;100760.31;5177377;27;45112;-68
2022/04/11 05:26:00;;;;;;;;;6.50;6.50;;;;;10.51;40.80;100747.72;5177528;27;45331;-65
2022/04/11 05:28:26;;;;;;;;;7.25;5.75;;;;;10.55;41.44;100752.25;5175559;27;47259;-68
2022/04/11 05:30:51;;;;;;;;;8.00;5.00;;;;;10.52;41.08;100744.16;5176824;27;45459;-66
2022/04/11 05:33:16;;;;;;;;;4.00;4.00;;;;;10.56;40.94;100747.81;5177703;27;45042;-68
2022/04/11 05:35:42;;;;;;;;;4.25;4.25;;;;;10.60;41.00;100750.59;5172342;27;44976;-67
2022/04/11 05:38:07;;;;;;;;;7.00;3.00;;;;;10.56;40.49;100738.06;5165080;27;45485;-65
2022/04/11 05:40:33;;;;;;;;;6.25;4.00;;;;;10.43;40.91;100718.13;5175566;27;45111;-67
2022/04/11 05:42:58;;;;;;;;;8.25;7.75;;;;;10.57;40.92;100739.84;5165765;27;45405;-69
2022/04/11 05:45:24;;;;;;;;;12.25;7.25;;;;;10.58;40.65;100746.09;5160762;27;45336;-65
2022/04/11 05:47:49;;;;;;;;;11.25;9.75;;;;;10.52;41.07;100730.81;5177900;27;45040;-65
2022/04/11 05:50:14;;;;;;;;;13.75;10.75;;;;;10.47;41.39;100727.09;5167546;27;47841;-67
2022/04/11 05:52:40;;;;;;;;;10.25;8.75;;;;;10.56;40.73;100742.47;5158378;27;45447;-67
2022/04/11 05:55:05;;;;;;;;;5.75;2.25;;;;;10.55;41.40;100751.38;5162308;27;45569;-66
2022/04/11 05:57:31;;;;;;;;;16.50;16.50;;;;;10.52;41.69;100754.84;5159474;27;45452;-68
2022/04/11 05:59:56;;;;;;;;;16.00;12.50;;;;;10.58;41.35;100743.44;5163084;27;45650;-67
2022/04/11 06:02:21;;;;;;;;;11.25;10.75;;;;;10.48;40.93;100745.84;5158611;27;45452;-65
2022/04/11 06:04:47;;;;;;;;;11.25;7.75;;;;;10.31;41.47;100725.75;5160627;27;45502;-66
2022/04/11 06:07:12;;;;;;;;;8.50;7.00;;;;;10.38;41.79;100734.84;5164761;27;45263;-66
2022/04/11 06:09:37;;;;;;;;;8.75;5.00;;;;;10.35;41.57;100751.72;5163037;27;45560;-66
2022/04/11 06:12:03;;;;;;;;;8.50;7.25;;;;;10.36;41.58;100750.88;5163577;27;45634;-66
2022/04/11 06:14:28;;;;;;;;;6.75;6.75;;;;;10.27;41.58;100739.91;5142961;27;45389;-68
2022/04/11 06:16:54;;;;;;;;;5.00;5.00;;;;;10.35;41.81;100767.75;5174066;27;45447;-69
2022/04/11 06:19:19;;;;;;;;;8.00;6.25;;;;;10.37;41.45;100755.34;5165711;27;45577;-66
2022/04/11 06:21:44;;;;;;;;;7.25;4.50;;;;;10.25;42.13;100729.16;5156994;27;49637;-66
2022/04/11 06:24:10;;;;;;;;;5.50;4.00;;;;;10.47;41.42;100756.50;5135884;27;45470;-69
2022/04/11 06:26:35;;;;;;;;;5.50;5.00;;;;;10.28;41.61;100720.34;5152502;27;45644;-67
2022/04/11 06:29:01;;;;;;;;;8.00;7.00;;;;;10.55;41.21;100748.69;5155457;27;46265;-67
2022/04/11 06:31:26;;;;;;;;;6.00;6.00;;;;;10.59;41.26;100758.56;5155750;27;45326;-67
2022/04/11 06:33:51;;;;;;;;;8.50;7.50;;;;;10.64;41.58;100763.19;5145833;27;45577;-66
2022/04/11 06:36:17;;;;;;;;;8.75;5.50;;;;;10.62;41.64;100745.31;5154133;27;45700;-69
2022/04/11 06:38:42;;;;;;;;;10.00;9.25;;;;;10.73;41.14;100748.28;5146942;27;48090;-67
2022/04/11 06:41:08;;;;;;;;;6.00;6.00;;;;;10.64;41.21;100739.16;5163200;27;45330;-68
2022/04/11 06:43:33;;;;;;;;;6.25;6.25;;;;;10.73;41.54;100733.13;5159319;27;45632;-68
2022/04/11 06:45:58;;;;;;;;;11.00;9.50;;;;;10.83;40.97;100731.59;5158099;27;45514;-69
2022/04/11 06:48:24;;;;;;;;;5.75;5.25;;;;;10.49;40.88;100663.94;5157735;27;46212;-68
2022/04/11 06:50:50;;;;;;;;;21.50;16.50;;;;;10.50;40.95;100661.31;5157759;27;45461;-65
2022/04/11 06:53:16;;;;;;;;;5.25;5.00;;;;;10.90;41.01;100736.22;5157539;27;45636;-69
2022/04/11 06:55:44;;;;;;;;;9.25;9.25;;;;;10.86;40.79;100707.63;5157778;27;45561;-67
2022/04/11 06:58:09;;;;;;;;;7.00;7.00;;;;;10.99;41.11;100714.19;5158145;27;46283;-68
2022/04/11 07:00:34;;;;;;;;;7.25;7.25;;;;;10.96;40.96;100715.00;5157769;27;45318;-68
2022/04/11 07:03:00;;;;;;;;;17.00;17.00;;;;;10.92;41.49;100712.19;5157679;27;45290;-67
2022/04/11 07:05:25;;;;;;;;;8.25;8.25;;;;;10.99;41.13;100717.75;5158275;27;45230;-68
2022/04/11 07:07:50;;;;;;;;;8.00;6.00;;;;;11.10;42.38;100717.09;5157601;27;46108;-68
2022/04/11 07:10:15;;;;;;;;;9.00;6.00;;;;;11.13;41.45;100712.72;5157557;27;45538;-69
2022/04/11 07:12:41;;;;;;;;;9.00;9.00;;;;;11.19;41.07;100712.84;5157604;27;45428;-67
2022/04/11 07:15:08;;;;;;;;;23.00;22.25;;;;;11.27;40.82;100701.41;5157920;27;45550;-67
2022/04/11 07:17:34;;;;;;;;;8.00;6.75;;;;;11.31;40.70;100700.63;5157545;27;45940;-67
2022/04/11 07:20:01;;;;;;;;;7.75;7.00;;;;;11.32;40.60;100687.31;5157531;27;45499;-67
2022/04/11 07:22:26;;;;;;;;;9.25;7.50;;;;;10.89;40.60;100627.50;5157557;27;45481;-69
2022/04/11 07:24:51;;;;;;;;;11.50;7.50;;;;;11.02;40.73;100667.03;5156927;27;45469;-68
2022/04/11 07:27:17;;;;;;;;;7.00;6.00;;;;;11.14;40.97;100685.13;5157476;27;45549;-67
2022/04/11 07:29:42;;;;;;;;;16.50;14.25;;;;;11.24;40.80;100680.88;5158081;27;45441;-69
2022/04/11 07:32:07;;;;;;;;;7.00;6.00;;;;;11.26;40.76;100687.16;5158261;27;45411;-67
2022/04/11 07:34:33;;;;;;;;;7.75;6.75;;;;;11.33;40.95;100682.84;5158045;27;45358;-69
2022/04/11 07:36:58;;;;;;;;;18.50;15.75;;;;;11.31;41.04;100655.16;5157392;27;45935;-67
2022/04/11 07:39:24;;;;;;;;;7.50;7.00;;;;;11.25;41.07;100664.88;5157784;27;45576;-67
2022/04/11 07:41:50;;;;;;;;;8.25;6.25;;;;;11.44;40.71;100675.97;5157914;27;45706;-68
2022/04/11 07:44:16;;;;;;;;;11.75;9.50;;;;;11.55;41.64;100671.75;5157832;27;45551;-67
2022/04/11 07:46:41;;;;;;;;;8.00;8.00;;;;;11.69;41.52;100668.47;5157130;27;46237;-69
2022/04/11 07:49:06;;;;;;;;;7.75;7.00;;;;;11.79;41.27;100676.69;5157023;27;45467;-68
2022/04/11 07:51:32;;;;;;;;;7.75;7.00;;;;;11.76;40.06;100678.41;5157356;27;45312;-67
2022/04/11 07:53:57;;;;;;;;;6.75;6.75;;;;;11.68;40.07;100674.66;5157499;27;45854;-67
2022/04/11 07:56:22;;;;;;;;;5.00;5.00;;;;;11.69;39.79;100671.13;5157038;27;45339;-67
2022/04/11 07:58:48;;;;;;;;;7.75;5.75;;;;;11.76;40.79;100663.28;5157078;27;45534;-67
2022/04/11 08:01:16;;;;;;;;;6.00;5.00;;;;;11.67;39.97;100640.78;5157112;27;45507;-68
2022/04/11 08:03:43;;;;;;;;;7.50;7.50;;;;;11.86;40.29;100663.44;5157724;27;45291;-69
2022/04/11 08:06:08;;;;;;;;;7.00;7.00;;;;;11.94;40.08;100654.69;5157029;27;46047;-67
2022/04/11 08:08:34;;;;;;;;;11.25;9.50;;;;;11.93;40.43;100644.88;5157098;27;49680;-67
2022/04/11 08:10:59;;;;;;;;;7.00;7.00;;;;;12.07;39.72;100652.28;5157373;27;45442;-66
2022/04/11 08:13:25;;;;;;;;;9.25;7.25;;;;;12.11;40.02;100630.00;5156846;27;45490;-66
2022/04/11 08:15:50;;;;;;;;;6.00;5.00;;;;;12.31;40.06;100644.69;5156739;27;45648;-67
2022/04/11 08:18:15;;;;;;;;;5.75;5.75;;;;;12.41;39.02;100632.34;5156582;27;45467;-65
2022/04/11 08:20:41;;;;;;;;;7.75;7.75;;;;;12.47;39.62;100627.09;5156727;27;45438;-67
2022/04/11 08:23:07;;;;;;;;;8.75;8.75;;;;;12.61;38.63;100638.03;5156978;27;45365;-66
2022/04/11 08:25:32;;;;;;;;;4.75;4.75;;;;;12.73;39.20;100634.66;5156287;27;45479;-66
2022/04/11 08:27:58;;;;;;;;;10.00;9.00;;;;;12.37;38.35;100578.69;5156596;27;45288;-67
2022/04/11 08:30:23;;;;;;;;;8.00;6.00;;;;;12.71;38.74;100648.03;5157005;27;45402;-67
2022/04/11 08:32:51;;;;;;;;;5.75;5.75;;;;;12.72;37.72;100630.19;5156731;27;45468;-66
2022/04/11 08:35:19;;;;;;;;;7.00;4.75;;;;;12.97;39.13;100642.19;5156623;27;45355;-68
2022/04/11 08:37:45;;;;;;;;;8.50;7.25;;;;;13.11;38.28;100641.47;5156221;27;45361;-68
2022/04/11 08:40:15;;;;;;;;;10.25;7.00;;;;;13.30;37.67;100626.50;5156786;27;45414;-67
2022/04/11 08:42:44;;;;;;;;;20.75;19.00;;;;;13.31;37.55;100601.50;5150238;27;45465;-68
2022/04/11 08:45:13;;;;;;;;;6.75;6.75;;;;;13.49;37.26;100609.81;5155347;27;46692;-67
2022/04/11 08:47:39;;;;;;;;;7.00;5.50;;;;;13.53;36.53;100627.75;5156114;27;45446;-67
2022/04/11 08:50:05;;;;;;;;;9.00;5.75;;;;;13.58;37.08;100625.13;5156255;27;45590;-67
2022/04/11 08:52:32;;;;;;;;;6.00;6.00;;;;;13.60;37.06;100613.53;5156937;27;45650;-65
2022/04/11 08:54:57;;;;;;;;;10.00;5.25;;;;;13.67;37.11;100606.44;5149233;27;45501;-67
2022/04/11 08:57:23;;;;;;;;;6.50;5.00;;;;;13.75;36.57;100594.00;5156063;27;45289;-67
2022/04/11 08:59:49;;;;;;;;;7.00;4.00;;;;;13.89;36.91;100588.78;5156059;27;45526;-67
2022/04/11 09:02:15;;;;;;;;;4.50;4.50;;;;;13.98;36.66;100586.19;5156137;27;45535;-68
2022/04/11 09:04:56;;;;;;;;;5.75;5.75;;;;;14.14;36.09;100586.34;5155551;27;46613;-67
2022/04/11 09:07:23;;;;;;;;;10.25;8.00;;;;;14.12;36.12;100547.78;5155992;27;45489;-67
2022/04/11 09:09:49;;;;;;;;;5.00;5.00;;;;;14.36;35.28;100579.34;5156029;27;45547;-66
2022/04/11 09:12:18;;;;;;;;;5.50;5.50;;;;;14.47;35.92;100577.66;5155989;27;45368;-66
2022/04/11 09:14:54;;;;;;;;;5.75;5.50;;;;;14.60;35.67;100572.38;5149591;27;45470;-68
2022/04/11 09:17:25;;;;;;;;;11.00;9.75;;;;;14.77;35.15;100575.22;5137845;27;45601;-67
2022/04/11 09:20:17;;;;;;;;;11.50;11.50;;;;;14.88;35.39;100581.53;5156694;27;45364;-67
2022/04/11 09:22:43;;;;;;;;;3.75;3.75;;;;;15.06;35.23;100576.28;5157150;27;45480;-66
2022/04/11 09:25:14;;;;;;;;;5.00;5.00;;;;;15.04;34.66;100555.63;5155978;27;46082;-67
2022/04/11 09:27:41;;;;;;;;;11.00;7.00;;;;;15.20;34.36;100573.66;5155467;27;45379;-67
2022/04/11 09:30:22;;;;;;;;;4.25;4.25;;;;;15.12;34.46;100567.31;5155106;27;45383;-66
2022/04/11 09:32:56;;;;;;;;;5.00;5.00;;;;;15.36;34.37;100565.63;5149010;27;45368;-68
2022/04/11 09:35:47;;;;;;;;;7.75;6.50;;;;;15.55;34.29;100555.81;5155164;27;46399;-67
2022/04/11 09:38:17;;;;;;;;;10.00;5.00;;;;;15.64;33.69;100543.28;5136546;27;45472;-67
2022/04/11 09:40:52;;;;;;;;;7.25;5.50;;;;;15.79;34.05;100546.94;5153748;27;45462;-66
2022/04/11 09:43:24;;;;;;;;;5.00;4.25;;;;;15.56;33.98;100476.81;5155886;27;45347;-67
2022/04/11 09:45:51;;;;;;;;;7.75;7.75;;;;;16.09;33.69;100547.88;5156036;27;46034;-68
2022/04/11 09:48:22;;;;;;;;;9.50;7.50;;;;;16.15;33.09;100529.91;5156055;27;45538;-66
2022/04/11 09:50:49;;;;;;;;;6.00;6.00;;;;;16.30;33.15;100542.50;5158927;27;45497;-68
2022/04/11 09:53:19;;;;;;;;;3.75;3.50;;;;;16.32;32.54;100537.09;5159139;27;45540;-66
2022/04/11 09:55:47;;;;;;;;;3.25;3.25;;;;;16.41;33.15;100531.69;5159076;27;46392;-69
2022/04/11 09:58:13;;;;;;;;;7.00;5.75;;;;;16.48;32.87;100528.09;5159237;27;45370;-69
2022/04/11 10:00:42;;;;;;;;;5.00;3.00;;;;;16.49;32.91;100520.91;5158972;27;45276;-68
2022/04/11 10:03:07;;;;;;;;;8.75;8.75;;;;;16.18;33.12;100464.31;5159009;27;45457;-69
2022/04/11 10:05:37;;;;;;;;;5.00;4.00;;;;;16.59;32.25;100534.34;5158001;27;46310;-69
2022/04/11 10:08:10;;;;;;;;;6.00;4.25;;;;;16.29;32.82;100470.59;5158320;27;45475;-66
2022/04/11 10:10:39;;;;;;;;;4.33;4.33;;;;;16.75;32.28;100526.25;5151828;27;45495;-68
2022/04/11 10:13:10;;;;;;;;;4.00;4.00;;;;;16.84;31.84;100511.81;5152085;27;45358;-67
2022/04/11 10:15:37;;;;;;;;;4.00;3.00;;;;;16.98;31.64;100506.38;5158119;27;46378;-67
2022/04/11 10:18:04;;;;;;;;;5.25;4.00;;;;;16.66;31.63;100440.81;5158159;27;45378;-68
2022/04/11 10:20:35;;;;;;;;;2.67;2.67;;;;;17.05;31.16;100506.38;5158596;27;45609;-65
2022/04/11 10:23:30;;;;;;;;;5.50;3.50;;;;;17.06;31.70;100520.75;5152290;27;45507;-66
2022/04/11 10:25:58;;;;;;;;;5.00;5.00;;;;;17.09;31.54;100518.97;5158441;27;46185;-68
2022/04/11 10:28:27;;;;;;;;;3.33;3.00;;;;;16.61;31.76;100433.66;5158322;27;45321;-67
2022/04/11 10:31:09;;;;;;;;;4.00;3.00;;;;;17.16;30.95;100510.81;5158129;27;45329;-67
2022/04/11 10:33:45;;;;;;;;;4.67;3.67;;;;;17.08;30.65;100492.88;5158508;27;45729;-68
2022/04/11 10:36:29;;;;;;;;;10.50;8.50;;;;;17.25;30.13;100503.56;5157908;27;45519;-67
2022/04/11 10:39:12;;;;;;;;;4.67;4.00;;;;;17.24;31.03;100498.19;5158268;27;45283;-68
2022/04/11 10:41:56;;;;;;;;;17.00;17.00;;;;;17.35;30.86;100495.44;5158187;27;45424;-68
2022/04/11 10:44:33;;;;;;;;;3.67;3.67;;;;;17.42;30.83;100492.69;5158326;27;45408;-67
2022/04/11 10:47:08;;;;;;;;;3.00;2.00;;;;;17.51;30.14;100489.03;5157714;27;45521;-66
2022/04/11 10:49:48;;;;;;;;;5.67;4.67;;;;;17.59;30.11;100478.19;5158413;27;45571;-70
2022/04/11 10:52:33;;;;;;;;;3.33;3.33;;;;;17.49;30.08;100478.25;5158037;27;45514;-68
2022/04/11 10:55:09;;;;;;;;;8.00;8.00;;;;;17.47;30.22;100479.16;5139911;27;45612;-68
2022/04/11 10:57:36;;;;;;;;;7.33;4.00;;;;;17.30;30.57;100454.94;5157770;27;46549;-68
2022/04/11 11:00:07;;;;;;;;;6.67;5.00;;;;;17.37;30.34;100478.31;5156365;27;45492;-68
2022/04/11 11:02:48;;;;;;;;;8.00;8.00;;;;;17.28;31.42;100472.97;5157950;27;45360;-69
2022/04/11 11:05:38;;;;;;;;;6.00;4.67;;;;;17.36;31.19;100468.44;5158198;27;45600;-68
2022/04/11 11:08:07;;;;;;;;;10.75;10.75;;;;;17.42;31.02;100465.69;5157781;27;46350;-68
2022/04/11 11:10:57;;;;;;;;;5.25;4.75;;;;;17.55;31.25;100454.78;5157906;27;45366;-68
2022/04/11 11:13:35;;;;;;;;;10.75;9.00;;;;;17.28;31.32;100383.88;5155846;27;45516;-67
2022/04/11 11:16:21;;;;;;;;;15.75;11.00;;;;;17.74;31.11;100445.66;5157928;27;45479;-68
2022/04/11 11:18:50;;;;;;;;;10.25;9.75;;;;;17.82;30.53;100454.59;5157845;27;46131;-69
2022/04/11 11:21:27;;;;;;;;;4.00;4.00;;;;;17.82;30.88;100467.22;5158264;27;45520;-68
2022/04/11 11:24:07;;;;;;;;;6.67;4.00;;;;;17.91;30.68;100467.16;5159178;27;45332;-68